Time;durP1;ratioP1;P1;durP2;ratioP2;P2;SDS_P1;SDS_P2;PMS_P1;PMS_P2;Temp;Humidity;BMP_temperature;BMP_pressure;BME280_temperature;BME280_humidity;BME280_pressure;Samples;Min_cycle;Max_cycle;Signal;HPM_P1;HPM_P2
2023/06/30 00:01:50;;;;;;;3.85;2.40;;;23.90;99.90;;;;;;7392285;19;20444;-71
2023/06/30 00:04:17;;;;;;;3.58;2.42;;;24.10;99.90;;;;;;7393199;19;20130;-71
2023/06/30 00:06:44;;;;;;;3.22;2.67;;;24.00;99.90;;;;;;7390142;19;20206;-70
2023/06/30 00:09:10;;;;;;;3.40;2.40;;;24.00;99.90;;;;;;7390002;19;20134;-71
2023/06/30 00:11:38;;;;;;;2.45;2.25;;;24.10;99.90;;;;;;7391031;19;20179;-70
2023/06/30 00:14:04;;;;;;;2.85;2.30;;;24.10;99.90;;;;;;7391185;19;20174;-71
2023/06/30 00:16:31;;;;;;;4.50;2.50;;;24.10;99.90;;;;;;7389143;19;20504;-71
2023/06/30 00:19:02;;;;;;;4.85;3.30;;;24.10;99.90;;;;;;7384136;19;20152;-71
2023/06/30 00:21:28;;;;;;;3.45;2.30;;;24.20;99.90;;;;;;7390549;19;20157;-72
2023/06/30 00:24:01;;;;;;;4.55;2.58;;;24.30;99.90;;;;;;7391477;19;20210;-71
2023/06/30 00:26:30;;;;;;;2.72;2.35;;;24.30;99.90;;;;;;7388691;19;20242;-71
2023/06/30 00:28:57;;;;;;;4.00;2.55;;;24.10;99.90;;;;;;7389003;19;20146;-71
2023/06/30 00:31:23;;;;;;;3.42;2.05;;;24.10;99.90;;;;;;7389722;19;20886;-71
2023/06/30 00:33:49;;;;;;;3.75;2.70;;;23.80;99.90;;;;;;7389311;19;20135;-71
2023/06/30 00:36:14;;;;;;;2.63;2.13;;;23.80;99.90;;;;;;7389728;19;20157;-71
2023/06/30 00:38:40;;;;;;;4.20;2.70;;;23.80;99.90;;;;;;7391612;19;20542;-73
2023/06/30 00:41:09;;;;;;;3.78;2.05;;;23.70;99.90;;;;;;7389848;19;20165;-71
2023/06/30 00:43:34;;;;;;;5.20;2.20;;;23.60;99.90;;;;;;7389623;19;20158;-71
2023/06/30 00:46:03;;;;;;;3.08;2.47;;;23.50;99.90;;;;;;7389261;19;20169;-71
2023/06/30 00:48:29;;;;;;;4.18;2.40;;;23.40;99.90;;;;;;7389141;19;20227;-71
2023/06/30 00:50:55;;;;;;;3.75;2.30;;;23.40;99.90;;;;;;7386638;19;20158;-71
2023/06/30 00:53:21;;;;;;;4.18;2.03;;;23.40;99.90;;;;;;7390532;19;20134;-72
2023/06/30 00:55:47;;;;;;;3.53;2.42;;;23.30;99.90;;;;;;7388192;19;20182;-72
2023/06/30 00:58:13;;;;;;;5.63;3.10;;;23.30;99.90;;;;;;7388137;19;20173;-72
2023/06/30 01:00:39;;;;;;;3.75;2.25;;;23.40;99.90;;;;;;7388968;19;20135;-71
2023/06/30 01:03:30;;;;;;;4.88;2.97;;;23.40;99.90;;;;;;7388627;19;20154;-71
2023/06/30 01:06:37;;;;;;;4.45;2.55;;;23.40;99.90;;;;;;7379616;19;20150;-70
2023/06/30 01:09:13;;;;;;;4.07;2.80;;;23.50;99.90;;;;;;7387720;19;20135;-71
2023/06/30 01:11:39;;;;;;;5.25;2.58;;;23.40;99.90;;;;;;7391398;19;20202;-71
2023/06/30 01:14:07;;;;;;;4.45;2.35;;;23.40;99.90;;;;;;7388931;19;20197;-70
2023/06/30 01:16:34;;;;;;;4.18;2.60;;;23.40;99.90;;;;;;7390022;19;20502;-71
2023/06/30 01:19:03;;;;;;;5.55;2.80;;;23.40;99.90;;;;;;7386266;19;20146;-73
2023/06/30 01:21:30;;;;;;;3.08;2.67;;;23.50;99.90;;;;;;7388333;19;20150;-72
2023/06/30 01:24:04;;;;;;;2.83;2.10;;;23.50;99.90;;;;;;7387413;19;20552;-73
2023/06/30 01:26:34;;;;;;;2.97;2.25;;;23.30;99.90;;;;;;7389803;19;20139;-73
2023/06/30 01:29:06;;;;;;;4.32;2.42;;;23.10;99.90;;;;;;7388119;19;20154;-71
2023/06/30 01:31:32;;;;;;;3.53;2.67;;;23.20;99.90;;;;;;7389085;19;20134;-72
2023/06/30 01:34:00;;;;;;;3.03;2.47;;;23.20;99.90;;;;;;7387854;19;20659;-72
2023/06/30 01:36:26;;;;;;;3.75;3.05;;;23.00;99.90;;;;;;7388594;19;20126;-71
2023/06/30 01:38:55;;;;;;;3.55;2.70;;;23.10;99.90;;;;;;7388179;19;20541;-71
2023/06/30 01:41:21;;;;;;;5.85;2.70;;;23.30;99.90;;;;;;7388312;19;20502;-72
2023/06/30 01:43:50;;;;;;;2.90;2.60;;;23.20;99.90;;;;;;7388762;19;20242;-71
2023/06/30 01:46:17;;;;;;;3.13;2.72;;;23.30;99.90;;;;;;7387274;19;20635;-71
2023/06/30 01:48:43;;;;;;;3.15;2.58;;;23.20;99.90;;;;;;7389405;19;20611;-72
2023/06/30 01:51:12;;;;;;;3.15;2.53;;;23.20;99.90;;;;;;7389173;19;20210;-72
2023/06/30 01:53:39;;;;;;;4.47;2.63;;;22.90;99.90;;;;;;7389980;19;20193;-70
2023/06/30 01:56:08;;;;;;;4.85;3.17;;;22.80;99.90;;;;;;7387017;19;20155;-72
2023/06/30 01:58:33;;;;;;;5.03;3.00;;;22.90;99.90;;;;;;7388588;19;20579;-71
2023/06/30 02:00:59;;;;;;;6.00;3.60;;;23.00;99.90;;;;;;7387010;19;20145;-72
2023/06/30 02:03:25;;;;;;;3.47;2.72;;;23.30;99.90;;;;;;7388844;19;20143;-70
2023/06/30 02:05:54;;;;;;;5.57;2.85;;;23.30;99.90;;;;;;7387339;19;20606;-71
2023/06/30 02:08:20;;;;;;;4.95;2.72;;;23.00;99.90;;;;;;7389536;19;20138;-72
2023/06/30 02:10:46;;;;;;;4.75;3.03;;;22.90;99.90;;;;;;7385162;19;20237;-74
2023/06/30 02:13:11;;;;;;;3.40;2.60;;;23.00;99.90;;;;;;7387069;19;20130;-72
2023/06/30 02:15:40;;;;;;;4.20;2.72;;;22.80;99.90;;;;;;7387066;19;20135;-71
2023/06/30 02:18:06;;;;;;;3.50;3.13;;;22.60;99.90;;;;;;7387874;19;20159;-73
2023/06/30 02:20:32;;;;;;;3.75;2.35;;;22.80;99.90;;;;;;7387128;19;20142;-72
2023/06/30 02:22:58;;;;;;;3.78;2.75;;;22.90;99.90;;;;;;7388203;19;20139;-72
2023/06/30 02:25:24;;;;;;;4.82;2.65;;;22.90;99.90;;;;;;7387184;19;20587;-72
2023/06/30 02:27:52;;;;;;;5.00;3.15;;;22.90;99.90;;;;;;7388440;19;20131;-72
2023/06/30 02:30:18;;;;;;;3.63;2.80;;;23.00;99.90;;;;;;7386085;19;20143;-71
2023/06/30 02:32:44;;;;;;;4.78;3.55;;;22.90;99.90;;;;;;7388985;19;20157;-71
2023/06/30 02:35:13;;;;;;;4.47;2.83;;;22.90;99.90;;;;;;7386461;19;20134;-70
2023/06/30 02:37:38;;;;;;;3.33;2.47;;;22.80;99.90;;;;;;7389333;19;20143;-72
2023/06/30 02:40:09;;;;;;;5.28;2.97;;;22.60;99.90;;;;;;7388003;19;20154;-71
2023/06/30 02:42:34;;;;;;;4.43;2.25;;;22.60;99.90;;;;;;7388370;19;20167;-71
2023/06/30 02:45:00;;;;;;;3.70;2.92;;;22.40;99.90;;;;;;7388197;19;20146;-72
2023/06/30 02:47:26;;;;;;;6.78;3.47;;;22.50;99.90;;;;;;7385772;19;20165;-71
2023/06/30 02:49:51;;;;;;;3.63;2.80;;;22.60;99.90;;;;;;7387117;19;20138;-71
2023/06/30 02:52:17;;;;;;;4.72;2.80;;;22.80;99.90;;;;;;7390222;19;20131;-71
2023/06/30 02:54:46;;;;;;;5.38;2.85;;;22.80;99.90;;;;;;7390068;19;20139;-72
2023/06/30 02:57:12;;;;;;;4.97;2.70;;;22.90;99.90;;;;;;7389557;19;20135;-72
2023/06/30 02:59:37;;;;;;;4.72;2.67;;;22.90;99.90;;;;;;7392382;19;20502;-72
2023/06/30 03:02:03;;;;;;;4.88;2.78;;;22.90;99.90;;;;;;7389276;19;20585;-72
2023/06/30 03:04:29;;;;;;;4.70;2.75;;;22.70;99.90;;;;;;7378737;19;20165;-72
2023/06/30 03:06:55;;;;;;;3.60;2.80;;;22.60;99.90;;;;;;7389163;19;20822;-72
2023/06/30 03:09:20;;;;;;;4.07;2.63;;;22.70;99.90;;;;;;7386650;19;20145;-72
2023/06/30 03:11:46;;;;;;;4.50;2.80;;;22.80;99.90;;;;;;7389980;19;20138;-72
2023/06/30 03:14:12;;;;;;;3.85;2.50;;;22.80;99.90;;;;;;7386419;19;20245;-71
2023/06/30 03:16:38;;;;;;;5.15;2.90;;;22.70;99.90;;;;;;7386097;19;20173;-72
2023/06/30 03:19:03;;;;;;;3.97;2.80;;;22.50;99.90;;;;;;7385876;19;20155;-71
2023/06/30 03:21:29;;;;;;;3.50;2.65;;;22.60;99.90;;;;;;7386571;19;20169;-71
2023/06/30 03:23:55;;;;;;;3.45;2.28;;;22.50;99.90;;;;;;7385680;19;20146;-71
2023/06/30 03:26:20;;;;;;;4.72;2.95;;;22.60;99.90;;;;;;7384697;19;20146;-72
2023/06/30 03:28:46;;;;;;;3.97;2.97;;;22.50;99.90;;;;;;7387697;19;20160;-70
2023/06/30 03:31:12;;;;;;;4.28;2.88;;;22.50;99.90;;;;;;7382221;19;20146;-72
2023/06/30 03:33:38;;;;;;;5.30;3.13;;;22.60;99.90;;;;;;7385020;19;20154;-71
2023/06/30 03:36:04;;;;;;;3.65;2.65;;;22.80;99.90;;;;;;7383407;19;20709;-71
2023/06/30 03:38:29;;;;;;;4.57;2.50;;;22.80;99.90;;;;;;7387311;19;20142;-71
2023/06/30 03:40:55;;;;;;;5.90;2.97;;;22.50;99.90;;;;;;7385491;19;20218;-71
2023/06/30 03:43:23;;;;;;;4.88;3.00;;;22.60;99.90;;;;;;7384222;19;20135;-72
2023/06/30 03:45:49;;;;;;;4.72;3.65;;;22.70;99.90;;;;;;7382999;19;20182;-71
2023/06/30 03:48:15;;;;;;;8.10;3.55;;;22.80;99.90;;;;;;7386568;19;20131;-71
2023/06/30 03:50:42;;;;;;;4.63;3.35;;;22.70;99.90;;;;;;7382646;19;20141;-72
2023/06/30 03:53:08;;;;;;;5.10;2.80;;;22.80;99.90;;;;;;7387548;19;20177;-71
2023/06/30 03:55:34;;;;;;;4.93;3.40;;;22.80;99.90;;;;;;7381911;19;20138;-71
2023/06/30 03:58:00;;;;;;;6.95;2.97;;;22.70;99.90;;;;;;7384459;19;20138;-71
2023/06/30 04:00:26;;;;;;;4.70;2.72;;;22.80;99.90;;;;;;7383215;19;20161;-72
2023/06/30 04:02:51;;;;;;;4.13;2.75;;;22.70;99.90;;;;;;7385044;19;20135;-71
2023/06/30 04:05:17;;;;;;;3.63;2.88;;;22.70;99.90;;;;;;7383923;19;20145;-73
2023/06/30 04:07:43;;;;;;;6.15;2.97;;;22.80;99.90;;;;;;7384494;19;20147;-71
2023/06/30 04:10:09;;;;;;;4.40;3.30;;;22.90;99.90;;;;;;7381840;19;20214;-71
2023/06/30 04:12:34;;;;;;;2.88;2.47;;;22.90;99.90;;;;;;7386585;19;20166;-72
2023/06/30 04:15:00;;;;;;;5.00;2.70;;;23.00;99.90;;;;;;7386223;19;20203;-71
2023/06/30 04:17:26;;;;;;;5.07;3.08;;;22.90;99.90;;;;;;7390521;19;20134;-70
2023/06/30 04:19:52;;;;;;;4.95;3.35;;;22.80;99.90;;;;;;7390598;19;20153;-72
2023/06/30 04:22:17;;;;;;;4.75;2.92;;;22.90;99.90;;;;;;7391974;19;20142;-72
2023/06/30 04:24:43;;;;;;;4.45;2.65;;;23.00;99.90;;;;;;7391442;19;20122;-71
2023/06/30 04:27:09;;;;;;;3.28;2.80;;;23.10;99.90;;;;;;7390100;19;20127;-72
2023/06/30 04:29:34;;;;;;;4.90;3.13;;;23.10;99.90;;;;;;7389764;19;20146;-71
2023/06/30 04:32:01;;;;;;;4.38;2.65;;;23.10;99.90;;;;;;7391008;19;20182;-71
2023/06/30 04:34:26;;;;;;;8.05;2.78;;;23.10;99.90;;;;;;7389973;19;20172;-72
2023/06/30 04:36:52;;;;;;;4.05;3.20;;;23.10;99.90;;;;;;7389943;19;20591;-72
2023/06/30 04:39:19;;;;;;;3.72;2.92;;;23.10;99.90;;;;;;7390640;19;20131;-71
2023/06/30 04:41:45;;;;;;;5.43;2.80;;;23.00;99.90;;;;;;7391814;19;20153;-71
2023/06/30 04:44:10;;;;;;;3.28;2.63;;;23.10;99.90;;;;;;7392567;19;20194;-72
2023/06/30 04:46:36;;;;;;;4.68;2.95;;;23.10;99.90;;;;;;7389135;19;20528;-72
2023/06/30 04:49:04;;;;;;;5.88;3.85;;;23.10;99.90;;;;;;7389579;19;20139;-71
2023/06/30 04:51:30;;;;;;;4.75;2.65;;;23.10;99.90;;;;;;7390632;19;20138;-72
2023/06/30 04:53:57;;;;;;;5.18;3.38;;;23.10;99.90;;;;;;7389971;19;20143;-72
2023/06/30 04:56:22;;;;;;;5.38;2.92;;;23.00;99.90;;;;;;7387850;19;20477;-72
2023/06/30 04:58:51;;;;;;;6.03;3.42;;;23.00;99.90;;;;;;7390075;19;20141;-71
2023/06/30 05:01:17;;;;;;;5.93;3.90;;;23.10;99.90;;;;;;7387217;19;20146;-72
2023/06/30 05:03:43;;;;;;;5.10;3.22;;;22.80;99.90;;;;;;7389122;19;20134;-70
2023/06/30 05:06:08;;;;;;;7.57;3.35;;;22.70;99.90;;;;;;7387978;19;20141;-75
2023/06/30 05:08:36;;;;;;;5.68;3.10;;;22.80;99.90;;;;;;7388322;19;20154;-75
2023/06/30 05:11:02;;;;;;;6.93;3.72;;;22.80;99.90;;;;;;7386793;19;20637;-74
2023/06/30 05:13:28;;;;;;;5.65;3.47;;;22.80;99.90;;;;;;7385157;19;20198;-76
2023/06/30 05:15:54;;;;;;;7.15;4.00;;;23.00;99.90;;;;;;7383933;19;20147;-76
2023/06/30 05:18:20;;;;;;;5.22;3.97;;;23.00;99.90;;;;;;7389224;19;20181;-76
2023/06/30 05:20:46;;;;;;;6.00;3.65;;;23.10;99.90;;;;;;7388290;19;20214;-75
2023/06/30 05:23:12;;;;;;;6.15;3.53;;;23.00;99.90;;;;;;7390134;19;20195;-76
2023/06/30 05:25:38;;;;;;;5.90;3.28;;;22.90;99.90;;;;;;7387545;19;20145;-76
2023/06/30 05:28:04;;;;;;;5.38;3.70;;;23.10;99.90;;;;;;7384838;19;20156;-76
2023/06/30 05:30:29;;;;;;;6.40;3.53;;;23.20;99.90;;;;;;7383581;19;20142;-76
2023/06/30 05:32:55;;;;;;;4.72;3.63;;;23.20;99.90;;;;;;7381810;19;20153;-77
2023/06/30 05:35:21;;;;;;;5.85;3.55;;;23.00;99.90;;;;;;7386978;19;20149;-77
2023/06/30 05:37:47;;;;;;;5.15;4.22;;;22.90;99.90;;;;;;7385449;19;20137;-77
2023/06/30 05:40:13;;;;;;;6.45;4.22;;;22.90;99.90;;;;;;7385336;19;20162;-76
2023/06/30 05:42:38;;;;;;;5.85;4.20;;;22.70;99.90;;;;;;7386130;19;20492;-76
2023/06/30 05:45:04;;;;;;;7.07;4.53;;;22.60;99.90;;;;;;7387297;19;20590;-76
2023/06/30 05:47:30;;;;;;;6.40;4.22;;;22.40;99.90;;;;;;7383245;19;20175;-76
2023/06/30 05:49:56;;;;;;;8.02;4.10;;;22.40;99.90;;;;;;7383532;19;20161;-76
2023/06/30 05:52:24;;;;;;;6.43;4.35;;;22.30;99.90;;;;;;7383383;19;20146;-75
2023/06/30 05:54:51;;;;;;;6.72;4.75;;;22.20;99.90;;;;;;7383824;19;20158;-76
2023/06/30 05:57:16;;;;;;;7.18;4.57;;;22.20;99.90;;;;;;7384009;19;20603;-75
2023/06/30 05:59:42;;;;;;;14.90;8.52;;;22.20;99.90;;;;;;7389219;19;20156;-75
2023/06/30 06:02:08;;;;;;;7.93;4.97;;;22.20;99.90;;;;;;7386970;19;20135;-76
2023/06/30 06:04:34;;;;;;;8.55;5.13;;;22.20;99.90;;;;;;7389079;19;20161;-76
2023/06/30 06:07:02;;;;;;;8.73;5.85;;;22.10;99.90;;;;;;7388311;19;20142;-75
2023/06/30 06:09:28;;;;;;;11.75;6.85;;;22.00;99.90;;;;;;7386834;19;20161;-76
2023/06/30 06:11:54;;;;;;;8.00;5.43;;;22.00;99.90;;;;;;7387402;19;20601;-75
2023/06/30 06:14:19;;;;;;;9.40;5.22;;;22.10;99.90;;;;;;7389408;19;20131;-75
2023/06/30 06:16:45;;;;;;;7.55;5.88;;;22.10;99.90;;;;;;7385561;19;20185;-75
2023/06/30 06:19:14;;;;;;;8.52;6.88;;;22.10;99.90;;;;;;7389298;19;20150;-74
2023/06/30 06:21:40;;;;;;;8.75;6.07;;;22.00;99.90;;;;;;7386640;19;20134;-75
2023/06/30 06:24:07;;;;;;;8.18;6.45;;;22.10;99.90;;;;;;7388295;19;20254;-74
2023/06/30 06:26:33;;;;;;;7.80;5.75;;;22.10;99.90;;;;;;7386434;19;20151;-75
2023/06/30 06:28:59;;;;;;;13.63;10.23;;;22.10;99.90;;;;;;7387306;19;20150;-76
2023/06/30 06:31:27;;;;;;;7.90;6.13;;;21.90;99.90;;;;;;7385955;19;20169;-75
2023/06/30 06:33:53;;;;;;;7.15;5.10;;;21.70;99.90;;;;;;7387650;19;20165;-75
2023/06/30 06:36:19;;;;;;;9.80;5.65;;;21.80;99.90;;;;;;7386533;19;20496;-75
2023/06/30 06:38:45;;;;;;;9.80;6.22;;;21.80;99.90;;;;;;7387537;19;20134;-75
2023/06/30 06:41:10;;;;;;;7.85;5.88;;;21.90;99.90;;;;;;7387059;19;20138;-75
2023/06/30 06:43:36;;;;;;;9.05;6.57;;;21.90;99.90;;;;;;7389838;19;20202;-76
2023/06/30 06:46:02;;;;;;;7.05;5.47;;;21.90;99.90;;;;;;7387429;19;20588;-75
2023/06/30 06:48:28;;;;;;;10.95;6.25;;;22.00;99.90;;;;;;7384901;19;20131;-75
2023/06/30 06:50:58;;;;;;;8.90;5.95;;;22.00;99.90;;;;;;7382673;19;20145;-72
2023/06/30 06:53:35;;;;;;;7.72;5.53;;;22.00;99.90;;;;;;7386722;19;20130;-74
2023/06/30 06:56:03;;;;;;;9.60;6.85;;;22.10;99.90;;;;;;7382539;19;20507;-74
2023/06/30 06:58:30;;;;;;;8.55;5.65;;;22.10;99.90;;;;;;7381328;19;20161;-74
2023/06/30 07:00:57;;;;;;;7.13;5.78;;;22.10;99.90;;;;;;7385005;19;20627;-73
2023/06/30 07:03:23;;;;;;;8.40;6.13;;;22.10;99.90;;;;;;7387575;19;20135;-73
2023/06/30 07:05:49;;;;;;;12.70;9.52;;;22.10;99.90;;;;;;7383885;19;20139;-73
2023/06/30 07:08:19;;;;;;;8.88;6.30;;;22.20;99.90;;;;;;7386287;19;20147;-74
2023/06/30 07:10:46;;;;;;;5.93;5.32;;;22.20;99.90;;;;;;7379629;19;20141;-73
2023/06/30 07:13:16;;;;;;;9.10;5.57;;;22.20;99.90;;;;;;7386938;19;20603;-74
2023/06/30 07:15:42;;;;;;;8.40;5.90;;;22.20;99.90;;;;;;7384920;19;20168;-76
2023/06/30 07:18:08;;;;;;;7.65;5.60;;;22.20;99.90;;;;;;7389562;19;20135;-76
2023/06/30 07:20:33;;;;;;;7.90;5.18;;;22.10;99.90;;;;;;7386703;19;20161;-76
2023/06/30 07:22:59;;;;;;;5.97;5.13;;;22.20;99.90;;;;;;7386307;19;20149;-77
2023/06/30 07:25:26;;;;;;;7.05;5.28;;;22.10;99.90;;;;;;7386997;19;20199;-77
2023/06/30 07:27:54;;;;;;;10.48;7.05;;;22.20;99.90;;;;;;7385156;19;20195;-78
2023/06/30 07:30:22;;;;;;;11.18;7.68;;;22.20;99.90;;;;;;7381355;19;20685;-78
2023/06/30 07:32:49;;;;;;;13.57;7.60;;;22.20;99.90;;;;;;7387706;19;20206;-77
2023/06/30 07:35:16;;;;;;;13.27;8.60;;;22.30;99.90;;;;;;7383080;19;20146;-78
2023/06/30 07:37:43;;;;;;;12.23;9.38;;;22.30;99.90;;;;;;7387085;19;20358;-77
2023/06/30 07:40:09;;;;;;;10.43;6.82;;;22.30;99.90;;;;;;7387041;19;20139;-78
2023/06/30 07:42:35;;;;;;;13.25;9.10;;;22.40;99.90;;;;;;7386843;19;20158;-78
2023/06/30 07:45:00;;;;;;;8.38;6.47;;;22.20;99.90;;;;;;7385938;19;20218;-77
2023/06/30 07:47:29;;;;;;;7.55;5.95;;;22.30;99.90;;;;;;7382075;19;20218;-79
2023/06/30 07:49:55;;;;;;;7.10;6.40;;;22.20;99.90;;;;;;7384558;19;20146;-79
2023/06/30 07:52:20;;;;;;;8.60;5.88;;;22.10;99.90;;;;;;7392061;19;20206;-79
2023/06/30 07:54:49;;;;;;;9.73;6.68;;;22.20;99.90;;;;;;7393116;19;20286;-79
2023/06/30 07:57:14;;;;;;;12.93;8.52;;;22.00;99.90;;;;;;7390970;19;20158;-75
2023/06/30 07:59:40;;;;;;;9.35;7.00;;;22.10;99.90;;;;;;7390858;19;20226;-75
2023/06/30 08:02:06;;;;;;;11.07;6.28;;;22.00;99.90;;;;;;7391968;19;20165;-76
2023/06/30 08:04:32;;;;;;;9.75;6.63;;;22.10;99.90;;;;;;7391815;19;20157;-76
2023/06/30 08:06:57;;;;;;;9.95;6.60;;;22.20;99.90;;;;;;7392772;19;20139;-74
2023/06/30 08:09:23;;;;;;;19.65;11.88;;;22.30;99.90;;;;;;7390460;19;20153;-74
2023/06/30 08:11:49;;;;;;;12.25;8.40;;;22.30;99.90;;;;;;7389696;19;20142;-76
2023/06/30 08:14:15;;;;;;;13.20;8.48;;;22.30;99.90;;;;;;7388157;19;20150;-75
2023/06/30 08:16:41;;;;;;;13.52;8.57;;;22.30;99.90;;;;;;7385722;19;20162;-75
2023/06/30 08:19:06;;;;;;;13.23;8.02;;;22.30;99.90;;;;;;7387779;19;20220;-74
2023/06/30 08:21:32;;;;;;;14.25;9.50;;;22.30;99.90;;;;;;7389402;19;20578;-74
2023/06/30 08:23:58;;;;;;;15.88;10.15;;;22.20;99.90;;;;;;7392394;19;20206;-75
2023/06/30 08:26:24;;;;;;;13.80;9.23;;;22.20;99.90;;;;;;7388072;19;20147;-74
2023/06/30 08:28:50;;;;;;;14.30;9.50;;;22.20;99.90;;;;;;7389540;19;20177;-75
2023/06/30 08:31:16;;;;;;;16.42;11.30;;;22.20;99.90;;;;;;7387340;19;20161;-74
2023/06/30 08:33:41;;;;;;;18.38;11.57;;;22.10;99.90;;;;;;7390032;19;20130;-74
2023/06/30 08:36:07;;;;;;;18.05;9.82;;;22.20;99.90;;;;;;7386998;19;20158;-73
2023/06/30 08:38:33;;;;;;;16.45;10.43;;;22.10;99.90;;;;;;7389152;19;20582;-75
2023/06/30 08:41:00;;;;;;;17.40;9.88;;;22.00;99.90;;;;;;7388164;19;20256;-75
2023/06/30 08:43:28;;;;;;;15.15;10.15;;;22.00;99.90;;;;;;7390063;19;20150;-75
2023/06/30 08:45:54;;;;;;;15.57;9.38;;;22.00;99.90;;;;;;7388346;19;20626;-75
2023/06/30 08:48:21;;;;;;;15.88;9.30;;;21.80;99.90;;;;;;7390912;19;20298;-76
2023/06/30 08:50:49;;;;;;;15.75;11.15;;;21.70;99.90;;;;;;7387811;19;20142;-75
2023/06/30 08:53:17;;;;;;;15.57;9.45;;;21.70;99.90;;;;;;7389721;19;20142;-76
2023/06/30 08:55:45;;;;;;;15.70;10.63;;;22.00;99.90;;;;;;7389391;19;20139;-76
2023/06/30 08:58:12;;;;;;;16.33;10.50;;;21.90;99.90;;;;;;7391724;19;20146;-76
2023/06/30 09:00:38;;;;;;;19.73;10.82;;;21.80;99.90;;;;;;7388992;19;20574;-75
2023/06/30 09:03:04;;;;;;;16.33;10.63;;;21.70;99.90;;;;;;7384759;19;20190;-75
2023/06/30 09:05:34;;;;;;;18.30;11.32;;;21.80;99.90;;;;;;7388793;19;20603;-74
2023/06/30 09:08:01;;;;;;;21.33;13.98;;;21.70;99.90;;;;;;7387265;19;20143;-74
2023/06/30 09:10:28;;;;;;;20.25;13.32;;;21.60;99.90;;;;;;7386965;19;20150;-75
2023/06/30 09:12:55;;;;;;;22.48;15.30;;;21.70;99.90;;;;;;7388786;19;20469;-74
2023/06/30 09:15:21;;;;;;;18.27;11.63;;;21.60;99.90;;;;;;7389271;19;20599;-75
2023/06/30 09:17:47;;;;;;;20.73;11.15;;;21.60;99.90;;;;;;7388438;19;20150;-75
2023/06/30 09:20:14;;;;;;;15.70;10.43;;;21.50;99.90;;;;;;7389985;19;20143;-75
2023/06/30 09:22:40;;;;;;;17.92;9.98;;;21.50;99.90;;;;;;7387907;19;20158;-75
2023/06/30 09:25:07;;;;;;;13.77;9.10;;;21.50;99.90;;;;;;7386410;19;20548;-75
2023/06/30 09:27:36;;;;;;;14.98;8.75;;;21.50;99.90;;;;;;7386616;19;20245;-74
2023/06/30 09:30:02;;;;;;;13.30;9.15;;;21.40;99.90;;;;;;7385949;19;20166;-75
2023/06/30 09:32:30;;;;;;;14.50;9.20;;;21.50;99.90;;;;;;7386774;19;20169;-74
2023/06/30 09:34:56;;;;;;;15.23;9.27;;;21.50;99.90;;;;;;7388443;19;20933;-75
2023/06/30 09:37:25;;;;;;;17.05;10.60;;;21.50;99.90;;;;;;7387101;19;20134;-75
2023/06/30 09:39:57;;;;;;;18.55;12.07;;;21.60;99.90;;;;;;7386805;19;20242;-76
2023/06/30 09:42:22;;;;;;;14.13;9.45;;;21.60;99.90;;;;;;7388567;19;20134;-74
2023/06/30 09:44:52;;;;;;;13.00;8.65;;;21.70;99.90;;;;;;7387747;19;20135;-75
2023/06/30 09:47:17;;;;;;;11.88;8.35;;;21.60;99.90;;;;;;7385186;19;20213;-74
2023/06/30 09:49:43;;;;;;;13.05;9.00;;;21.60;99.90;;;;;;7387658;19;20535;-74
2023/06/30 09:52:09;;;;;;;14.27;9.63;;;21.60;99.90;;;;;;7390397;19;20144;-76
2023/06/30 09:54:36;;;;;;;16.98;10.20;;;21.70;99.90;;;;;;7390691;19;20149;-75
2023/06/30 09:57:06;;;;;;;14.50;9.88;;;21.60;99.90;;;;;;7387805;19;20218;-73
2023/06/30 09:59:32;;;;;;;16.20;11.30;;;21.60;99.90;;;;;;7385959;19;20143;-75
2023/06/30 10:02:00;;;;;;;14.55;9.75;;;21.70;99.90;;;;;;7389417;19;20191;-75
2023/06/30 10:04:29;;;;;;;17.58;11.93;;;21.60;99.90;;;;;;7386018;19;20242;-74
2023/06/30 10:06:56;;;;;;;12.05;8.75;;;21.80;99.90;;;;;;7388504;19;20474;-75
2023/06/30 10:09:23;;;;;;;16.60;11.10;;;21.80;99.90;;;;;;7386269;19;20169;-74
2023/06/30 10:11:54;;;;;;;12.52;8.60;;;21.90;99.90;;;;;;7389070;19;20146;-74
2023/06/30 10:14:26;;;;;;;13.73;8.32;;;21.90;99.90;;;;;;7388283;19;20587;-75
2023/06/30 10:16:52;;;;;;;21.25;14.30;;;21.90;99.90;;;;;;7386547;19;20153;-74
2023/06/30 10:19:18;;;;;;;10.25;7.95;;;21.90;99.90;;;;;;7390663;19;20142;-75
2023/06/30 10:21:44;;;;;;;11.05;8.13;;;22.00;99.90;;;;;;7390147;19;20156;-74
2023/06/30 10:24:11;;;;;;;10.88;8.48;;;21.90;99.90;;;;;;7388805;19;20510;-74
2023/06/30 10:26:38;;;;;;;12.18;9.07;;;21.90;99.90;;;;;;7387244;19;20139;-75
2023/06/30 10:29:04;;;;;;;14.30;8.48;;;21.90;99.90;;;;;;7390021;19;20141;-73
2023/06/30 10:31:32;;;;;;;12.95;9.05;;;21.90;99.90;;;;;;7387665;19;20134;-73
2023/06/30 10:33:58;;;;;;;12.88;8.88;;;21.90;99.90;;;;;;7388468;19;20160;-72
2023/06/30 10:36:24;;;;;;;12.25;9.05;;;22.00;99.90;;;;;;7388759;19;20122;-74
2023/06/30 10:38:51;;;;;;;12.13;9.32;;;22.00;99.90;;;;;;7389001;19;20158;-74
2023/06/30 10:41:22;;;;;;;12.43;9.23;;;21.90;99.90;;;;;;7390941;19;20451;-74
2023/06/30 10:44:03;;;;;;;12.45;8.95;;;22.00;99.90;;;;;;7391991;19;20238;-74
2023/06/30 10:46:52;;;;;;;13.35;8.73;;;22.00;99.90;;;;;;7391699;19;20150;-75
2023/06/30 10:49:34;;;;;;;10.18;8.75;;;22.00;99.90;;;;;;7392709;19;20222;-74
2023/06/30 10:52:06;;;;;;;14.40;9.98;;;22.00;99.90;;;;;;7394150;19;20135;-74
2023/06/30 10:54:49;;;;;;;20.25;15.05;;;22.10;99.90;;;;;;7390828;19;20154;-75
2023/06/30 10:57:25;;;;;;;16.58;11.48;;;22.10;99.90;;;;;;7388364;19;20158;-75
2023/06/30 11:00:11;;;;;;;16.20;10.95;;;22.20;99.90;;;;;;7387201;19;20147;-74
2023/06/30 11:02:50;;;;;;;13.93;9.40;;;22.20;99.90;;;;;;7385752;19;20181;-74
2023/06/30 11:05:21;;;;;;;13.85;10.07;;;22.30;99.90;;;;;;7387142;19;20437;-73
2023/06/30 11:07:53;;;;;;;14.00;9.55;;;22.30;99.90;;;;;;7384769;19;20182;-75
2023/06/30 11:10:37;;;;;;;12.55;9.60;;;22.30;99.90;;;;;;7382154;19;20566;-76
2023/06/30 11:13:05;;;;;;;17.80;11.07;;;22.40;99.90;;;;;;7385757;19;20158;-75
2023/06/30 11:15:43;;;;;;;16.65;11.50;;;22.40;99.90;;;;;;7384302;19;20550;-75
2023/06/30 11:18:13;;;;;;;23.00;12.07;;;22.40;99.90;;;;;;7385121;19;20637;-74
2023/06/30 11:20:56;;;;;;;16.77;11.30;;;22.50;99.90;;;;;;7386572;19;20147;-74
2023/06/30 11:23:22;;;;;;;19.70;12.07;;;22.50;99.90;;;;;;7384478;19;20138;-75
2023/06/30 11:25:48;;;;;;;19.17;12.52;;;22.50;99.90;;;;;;7385641;19;20144;-75
2023/06/30 11:28:14;;;;;;;19.25;12.25;;;22.50;99.90;;;;;;7389257;19;20145;-76
2023/06/30 11:30:41;;;;;;;37.28;27.92;;;22.50;99.90;;;;;;7389732;19;20175;-75
2023/06/30 11:33:07;;;;;;;17.13;13.02;;;22.50;99.90;;;;;;7392367;19;20888;-75
2023/06/30 11:35:35;;;;;;;17.58;12.90;;;22.50;99.90;;;;;;7390484;19;20134;-75
2023/06/30 11:38:01;;;;;;;18.58;14.40;;;22.50;99.90;;;;;;7390676;19;20329;-74
2023/06/30 11:40:27;;;;;;;18.58;13.75;;;22.30;99.90;;;;;;7392160;19;20254;-76
2023/06/30 11:42:53;;;;;;;17.75;13.23;;;22.30;99.90;;;;;;7390893;19;20195;-74
2023/06/30 11:45:20;;;;;;;18.83;13.75;;;22.40;99.90;;;;;;7392058;19;20154;-76
2023/06/30 11:47:51;;;;;;;20.33;13.15;;;22.30;99.90;;;;;;7390447;19;20158;-76
2023/06/30 11:50:19;;;;;;;18.20;13.90;;;22.20;99.90;;;;;;7389475;19;20154;-76
2023/06/30 11:52:48;;;;;;;19.08;13.18;;;22.30;99.90;;;;;;7391374;19;20170;-76
2023/06/30 11:55:15;;;;;;;21.88;14.35;;;22.30;99.90;;;;;;7390775;19;20210;-74
2023/06/30 11:57:43;;;;;;;21.45;14.93;;;22.30;99.90;;;;;;7392272;19;20142;-77
2023/06/30 12:00:14;;;;;;;20.65;14.85;;;22.40;99.90;;;;;;7390185;19;20149;-76
2023/06/30 12:02:47;;;;;;;18.77;14.20;;;22.70;99.90;;;;;;7392427;19;20171;-76
2023/06/30 12:05:16;;;;;;;18.75;12.95;;;22.60;99.90;;;;;;7391534;19;20134;-76
2023/06/30 12:07:45;;;;;;;18.98;13.25;;;22.70;99.90;;;;;;7389681;19;20646;-76
2023/06/30 12:10:12;;;;;;;20.42;13.10;;;22.70;99.90;;;;;;7390312;19;20135;-76
2023/06/30 12:12:39;;;;;;;19.77;13.77;;;22.80;99.90;;;;;;7392124;19;20190;-75
2023/06/30 12:15:10;;;;;;;19.77;13.63;;;22.80;99.90;;;;;;7388643;19;20149;-75
2023/06/30 12:17:43;;;;;;;19.00;13.52;;;22.90;99.90;;;;;;7390280;19;20473;-77
2023/06/30 12:20:10;;;;;;;20.13;14.40;;;22.80;99.90;;;;;;7388773;19;20142;-75
2023/06/30 12:22:41;;;;;;;20.48;13.73;;;22.80;99.90;;;;;;7389961;19;20180;-76
2023/06/30 12:25:12;;;;;;;19.20;13.07;;;22.80;99.90;;;;;;7390217;19;20150;-75
2023/06/30 12:27:43;;;;;;;19.23;13.43;;;22.70;99.90;;;;;;7389772;19;20146;-75
2023/06/30 12:30:17;;;;;;;21.40;13.38;;;22.70;99.90;;;;;;7389147;19;20568;-75
2023/06/30 12:32:43;;;;;;;20.95;13.55;;;22.70;99.90;;;;;;7391982;19;20704;-75
2023/06/30 12:35:10;;;;;;;17.00;13.10;;;22.70;99.90;;;;;;7390040;19;20146;-76
2023/06/30 12:37:36;;;;;;;19.40;13.90;;;22.70;99.90;;;;;;7386941;19;20632;-76
2023/06/30 12:40:03;;;;;;;18.58;13.45;;;22.70;99.90;;;;;;7388270;19;20131;-77
2023/06/30 12:42:29;;;;;;;18.73;13.18;;;22.60;99.90;;;;;;7391680;19;20157;-76